createdAt,value
2023-05-01T00:01:02.394Z,100.00
2023-05-01T00:04:08.724Z,100.00
2023-05-01T00:07:16.507Z,100.00
2023-05-01T00:10:22.673Z,100.00
2023-05-01T00:13:28.685Z,100.00
2023-05-01T00:16:36.361Z,100.00
2023-05-01T00:19:42.480Z,100.00
2023-05-01T00:22:49.879Z,100.00
2023-05-01T00:25:55.780Z,100.00
2023-05-01T00:29:02.070Z,100.00
2023-05-01T00:32:08.508Z,100.00
2023-05-01T00:35:14.581Z,100.00
2023-05-01T00:38:23.961Z,100.00
2023-05-01T00:41:30.351Z,100.00
2023-05-01T00:44:36.540Z,100.00
2023-05-01T00:47:42.710Z,100.00
2023-05-01T00:50:50.405Z,100.00
2023-05-01T00:54:00.950Z,100.00
2023-05-01T00:57:08.411Z,100.00
2023-05-01T01:00:16.976Z,100.00
2023-05-01T01:03:23.125Z,100.00
2023-05-01T01:06:39.375Z,100.00
2023-05-01T01:09:57.830Z,100.00
2023-05-01T01:13:13.524Z,100.00
2023-05-01T01:16:24.779Z,100.00
2023-05-01T01:20:19.855Z,100.00
2023-05-01T01:24:13.973Z,100.00
2023-05-01T01:27:52.489Z,100.00
2023-05-01T01:31:12.242Z,100.00
2023-05-01T01:34:26.608Z,100.00
2023-05-01T01:37:44.293Z,100.00
2023-05-01T01:40:56.685Z,100.00
2023-05-01T01:44:13.528Z,100.00
2023-05-01T01:47:21.964Z,100.00
2023-05-01T01:50:32.468Z,100.00
2023-05-01T01:53:40.521Z,100.00
2023-05-01T01:56:48.800Z,100.00
2023-05-01T01:59:56.726Z,100.00
2023-05-01T02:03:04.825Z,100.00
2023-05-01T02:06:15.474Z,100.00
2023-05-01T02:09:23.245Z,100.00
2023-05-01T02:12:30.784Z,100.00
2023-05-01T02:15:37.383Z,100.00
2023-05-01T02:18:45.953Z,100.00
2023-05-01T02:21:55.305Z,100.00
2023-05-01T02:25:03.523Z,100.00
2023-05-01T02:28:13.885Z,100.00
2023-05-01T02:31:20.223Z,100.00
2023-05-01T02:34:26.227Z,100.00
2023-05-01T02:37:34.061Z,100.00
2023-05-01T02:40:41.236Z,100.00
2023-05-01T02:43:53.070Z,100.00
2023-05-01T02:47:02.246Z,100.00
2023-05-01T02:50:10.129Z,100.00
2023-05-01T02:53:18.819Z,100.00
2023-05-01T02:56:27.121Z,100.00
2023-05-01T02:59:33.467Z,100.00
2023-05-01T03:02:40.105Z,100.00
2023-05-01T03:05:46.363Z,100.00
2023-05-01T03:08:54.337Z,100.00
2023-05-01T03:12:01.174Z,100.00
2023-05-01T03:15:08.800Z,100.00
2023-05-01T03:18:15.579Z,100.00
2023-05-01T03:21:21.872Z,100.00
2023-05-01T03:24:29.403Z,100.00
2023-05-01T03:27:35.613Z,100.00
2023-05-01T03:30:41.516Z,100.00
2023-05-01T03:33:48.132Z,100.00
2023-05-01T03:36:54.481Z,100.00
2023-05-01T03:40:02.379Z,100.00
2023-05-01T03:43:08.605Z,100.00
2023-05-01T03:46:14.653Z,100.00
2023-05-01T03:49:20.724Z,100.00
2023-05-01T03:52:27.462Z,100.00
2023-05-01T03:55:34.964Z,100.00
2023-05-01T03:58:41.120Z,100.00
2023-05-01T04:01:47.533Z,100.00
2023-05-01T04:04:53.675Z,100.00
2023-05-01T04:07:59.712Z,100.00
2023-05-01T04:11:07.597Z,100.00
2023-05-01T04:14:13.685Z,100.00
2023-05-01T04:17:19.755Z,100.00
2023-05-01T04:20:25.826Z,100.00
2023-05-01T04:23:31.909Z,100.00
2023-05-01T04:26:39.254Z,100.00
2023-05-01T04:29:45.457Z,100.00
2023-05-01T04:32:51.455Z,100.00
2023-05-01T04:35:57.486Z,100.00
2023-05-01T04:39:03.644Z,100.00
2023-05-01T04:42:11.006Z,100.00
2023-05-01T04:45:17.205Z,100.00
2023-05-01T04:48:23.736Z,100.00
2023-05-01T04:51:30.290Z,100.00
2023-05-01T04:54:36.673Z,100.00
2023-05-01T04:57:44.232Z,100.00
2023-05-01T05:00:50.504Z,100.00
2023-05-01T05:03:56.811Z,100.00
2023-05-01T05:07:03.019Z,100.00
2023-05-01T05:10:09.886Z,100.00
2023-05-01T05:13:17.287Z,100.00
2023-05-01T05:16:23.613Z,100.00
2023-05-01T05:19:29.499Z,100.00
2023-05-01T05:22:37.450Z,100.00
2023-05-01T05:25:43.804Z,100.00
2023-05-01T05:28:51.712Z,100.00
2023-05-01T05:31:59.821Z,100.00
2023-05-01T05:35:06.605Z,100.00
2023-05-01T05:38:12.689Z,100.00
2023-05-01T05:41:18.909Z,100.00
2023-05-01T05:44:26.669Z,100.00
2023-05-01T05:47:32.830Z,99.23
2023-05-01T05:50:39.040Z,99.88
2023-05-01T05:53:45.480Z,100.00
2023-05-01T05:56:51.718Z,99.36
2023-05-01T05:59:59.612Z,97.08
2023-05-01T06:03:07.339Z,93.70
2023-05-01T06:06:13.627Z,97.27
2023-05-01T06:09:20.353Z,95.61
2023-05-01T06:12:26.493Z,95.02
2023-05-01T06:15:35.013Z,94.92
2023-05-01T06:18:41.124Z,90.38
2023-05-01T06:21:47.247Z,91.07
2023-05-01T06:24:53.572Z,92.20
2023-05-01T06:28:00.167Z,86.41
2023-05-01T06:31:07.701Z,91.68
2023-05-01T06:34:14.193Z,89.02
2023-05-01T06:37:21.161Z,83.36
2023-05-01T06:40:27.014Z,87.46
2023-05-01T06:43:33.642Z,80.74
2023-05-01T06:46:41.462Z,76.36
2023-05-01T06:49:47.920Z,74.17
2023-05-01T06:52:53.742Z,80.09
2023-05-01T06:56:00.111Z,77.16
2023-05-01T06:59:06.227Z,76.85
2023-05-01T07:02:13.921Z,74.35
2023-05-01T07:05:20.497Z,77.75
2023-05-01T07:08:28.328Z,74.50
2023-05-01T07:11:35.027Z,69.25
2023-05-01T07:14:41.913Z,68.79
2023-05-01T07:17:49.608Z,66.04
2023-05-01T07:20:55.943Z,65.76
2023-05-01T07:24:02.070Z,63.15
2023-05-01T07:27:08.348Z,60.75
2023-05-01T07:30:14.669Z,60.77
2023-05-01T07:33:22.232Z,61.15
2023-05-01T07:36:28.609Z,60.67
2023-05-01T07:39:34.669Z,57.16
2023-05-01T07:42:41.073Z,58.37
2023-05-01T07:45:56.599Z,60.11
2023-05-01T07:49:04.418Z,59.23
2023-05-01T07:52:11.081Z,56.33
2023-05-01T07:55:19.381Z,59.17
2023-05-01T07:58:25.473Z,56.76
2023-05-01T08:01:31.876Z,53.98
2023-05-01T08:04:39.775Z,50.16
2023-05-01T08:07:46.670Z,50.52
2023-05-01T08:10:53.483Z,48.66
2023-05-01T08:13:59.433Z,47.18
2023-05-01T08:17:05.346Z,44.91
2023-05-01T08:20:14.350Z,44.79
2023-05-01T08:23:20.291Z,43.80
2023-05-01T08:26:26.523Z,43.65
2023-05-01T08:29:32.691Z,44.94
2023-05-01T08:32:38.684Z,43.23
2023-05-01T08:35:46.417Z,44.64
2023-05-01T08:38:53.033Z,41.75
2023-05-01T08:42:00.153Z,43.44
2023-05-01T08:45:09.516Z,40.90
2023-05-01T08:48:19.188Z,42.08
2023-05-01T08:51:27.450Z,44.10
2023-05-01T08:54:36.679Z,42.54
2023-05-01T08:57:47.013Z,40.43
2023-05-01T09:00:56.667Z,39.70
2023-05-01T09:04:05.201Z,38.21
2023-05-01T09:07:13.587Z,40.49
2023-05-01T09:10:20.121Z,38.27
2023-05-01T09:13:27.008Z,37.87
2023-05-01T09:16:33.754Z,36.92
2023-05-01T09:19:40.880Z,36.99
2023-05-01T09:22:48.696Z,41.14
2023-05-01T09:25:56.411Z,39.32
2023-05-01T09:29:02.991Z,39.17
2023-05-01T09:32:20.806Z,40.02
2023-05-01T09:35:28.146Z,38.51
2023-05-01T09:38:35.306Z,40.83
2023-05-01T09:41:53.328Z,39.63
2023-05-01T09:45:00.193Z,39.47
2023-05-01T09:48:11.929Z,42.41
2023-05-01T09:51:23.173Z,44.22
2023-05-01T09:54:30.971Z,40.63
2023-05-01T09:57:38.333Z,44.99
2023-05-01T10:00:51.062Z,41.55
2023-05-01T10:03:57.909Z,45.66
2023-05-01T10:07:14.485Z,42.63
2023-05-01T10:10:23.550Z,44.73
2023-05-01T10:13:30.203Z,43.05
2023-05-01T10:16:37.243Z,42.70
2023-05-01T10:19:43.352Z,43.63
2023-05-01T10:22:50.065Z,42.28
2023-05-01T10:25:58.610Z,41.27
2023-05-01T10:29:06.120Z,39.39
2023-05-01T10:32:12.780Z,39.46
2023-05-01T10:35:26.052Z,42.49
2023-05-01T10:38:35.547Z,42.70
2023-05-01T10:42:04.865Z,43.82
2023-05-01T10:45:29.332Z,49.31
2023-05-01T10:48:54.571Z,55.98
2023-05-01T10:52:03.814Z,69.20
2023-05-01T10:55:35.298Z,77.81
2023-05-01T10:59:04.781Z,78.81
2023-05-01T11:02:23.675Z,75.81
2023-05-01T11:06:03.900Z,80.72
2023-05-01T11:09:43.946Z,71.36
2023-05-01T11:12:53.731Z,72.25
2023-05-01T11:16:21.199Z,81.06
2023-05-01T11:19:48.382Z,83.53
2023-05-01T11:22:55.861Z,81.92
2023-05-01T11:26:08.795Z,88.68
2023-05-01T11:29:14.952Z,83.00
2023-05-01T11:32:26.503Z,82.90
2023-05-01T11:35:34.212Z,86.59
2023-05-01T11:38:40.663Z,79.98
2023-05-01T11:41:47.325Z,74.91
2023-05-01T11:45:12.072Z,72.64
2023-05-01T11:48:20.145Z,79.11
2023-05-01T11:51:27.016Z,83.32
2023-05-01T11:54:33.254Z,93.66
2023-05-01T11:57:49.983Z,88.49
2023-05-01T12:00:55.971Z,84.36
2023-05-01T12:04:04.062Z,72.81
2023-05-01T12:07:21.927Z,75.89
2023-05-01T12:10:28.325Z,72.10
2023-05-01T12:13:34.706Z,67.16
2023-05-01T12:16:42.438Z,63.62
2023-05-01T12:19:50.086Z,62.63
2023-05-01T12:22:56.557Z,76.27
2023-05-01T12:26:04.544Z,74.59
2023-05-01T12:29:16.405Z,66.07
2023-05-01T12:32:34.024Z,64.52
2023-05-01T12:35:45.449Z,62.87
2023-05-01T12:38:57.524Z,57.24
2023-05-01T12:42:03.433Z,54.66
2023-05-01T12:45:14.870Z,52.77
2023-05-01T12:48:21.839Z,48.43
2023-05-01T12:51:29.432Z,49.15
2023-05-01T12:54:37.825Z,50.59
2023-05-01T12:57:54.832Z,48.79
2023-05-01T13:01:01.001Z,48.05
2023-05-01T13:04:07.348Z,43.97
2023-05-01T13:07:16.455Z,45.76
2023-05-01T13:10:32.822Z,44.66
2023-05-01T13:13:39.481Z,42.22
2023-05-01T13:16:47.598Z,43.18
2023-05-01T13:19:58.356Z,42.95
2023-05-01T13:23:13.001Z,42.08
2023-05-01T13:26:19.704Z,42.86
2023-05-01T13:29:27.050Z,44.13
2023-05-01T13:32:33.343Z,48.59
2023-05-01T13:35:41.215Z,48.18
2023-05-01T13:38:51.563Z,49.09
2023-05-01T13:41:57.862Z,49.96
2023-05-01T13:45:07.905Z,53.32
2023-05-01T13:48:14.313Z,53.08
2023-05-01T13:51:23.205Z,52.96
2023-05-01T13:54:30.968Z,54.29
2023-05-01T13:57:37.805Z,56.16
2023-05-01T14:00:46.218Z,54.31
2023-05-01T14:03:53.068Z,54.26
2023-05-01T14:07:01.443Z,56.63
2023-05-01T14:10:11.261Z,57.46
2023-05-01T14:13:19.958Z,59.28
2023-05-01T14:16:28.012Z,55.87
2023-05-01T14:19:34.615Z,57.13
2023-05-01T14:22:45.683Z,60.19
2023-05-01T14:25:53.675Z,58.85
2023-05-01T14:28:59.813Z,59.00
2023-05-01T14:32:06.707Z,60.34
2023-05-01T14:35:12.573Z,65.32
2023-05-01T14:38:20.031Z,66.64
2023-05-01T14:41:28.026Z,75.46
2023-05-01T14:44:34.775Z,85.09
2023-05-01T14:47:42.603Z,92.61
2023-05-01T14:50:48.669Z,96.85
2023-05-01T14:53:55.235Z,100.00
2023-05-01T14:57:06.620Z,100.00
2023-05-01T15:00:14.039Z,100.00
2023-05-01T15:03:20.404Z,100.00
2023-05-01T15:06:27.405Z,100.00
2023-05-01T15:09:33.858Z,100.00
2023-05-01T15:12:41.577Z,100.00
2023-05-01T15:15:47.563Z,100.00
2023-05-01T15:18:53.456Z,100.00
2023-05-01T15:21:59.467Z,100.00
2023-05-01T15:25:06.268Z,100.00
2023-05-01T15:28:14.981Z,100.00
2023-05-01T15:31:21.602Z,100.00
2023-05-01T15:34:28.000Z,100.00
2023-05-01T15:37:34.332Z,100.00
2023-05-01T15:40:40.563Z,100.00
2023-05-01T15:43:48.483Z,100.00
2023-05-01T15:46:55.074Z,100.00
2023-05-01T15:50:01.615Z,100.00
2023-05-01T15:53:08.365Z,100.00
2023-05-01T15:56:14.372Z,100.00
2023-05-01T15:59:22.356Z,98.19
2023-05-01T16:02:32.961Z,95.39
2023-05-01T16:05:40.716Z,94.84
2023-05-01T16:08:47.090Z,93.67
2023-05-01T16:11:53.412Z,93.04
2023-05-01T16:15:03.524Z,94.05
2023-05-01T16:18:11.390Z,94.74
2023-05-01T16:21:19.746Z,95.12
2023-05-01T16:24:26.595Z,97.32
2023-05-01T16:27:33.044Z,97.60
2023-05-01T16:30:43.949Z,96.61
2023-05-01T16:33:51.712Z,100.00
2023-05-01T16:36:58.449Z,100.00
2023-05-01T16:40:05.422Z,100.00
2023-05-01T16:43:11.820Z,100.00
2023-05-01T16:46:19.552Z,100.00
2023-05-01T16:49:27.422Z,100.00
2023-05-01T16:52:33.938Z,100.00
2023-05-01T16:55:40.184Z,100.00
2023-05-01T16:58:46.496Z,100.00
2023-05-01T17:01:54.249Z,100.00
2023-05-01T17:05:00.729Z,100.00
2023-05-01T17:08:06.944Z,100.00
2023-05-01T17:11:14.632Z,100.00
2023-05-01T17:14:21.124Z,100.00
2023-05-01T17:17:28.874Z,100.00
2023-05-01T17:20:35.170Z,100.00
2023-05-01T17:23:41.446Z,100.00
2023-05-01T17:26:47.875Z,100.00
2023-05-01T17:29:54.039Z,100.00
2023-05-01T17:33:01.741Z,100.00
2023-05-01T17:36:08.154Z,100.00
2023-05-01T17:39:14.694Z,100.00
2023-05-01T17:42:20.989Z,100.00
2023-05-01T17:45:26.937Z,100.00
2023-05-01T17:48:34.483Z,100.00
2023-05-01T17:51:40.840Z,100.00
2023-05-01T17:54:47.210Z,100.00
2023-05-01T17:57:53.757Z,100.00
2023-05-01T18:01:00.401Z,100.00
2023-05-01T18:04:09.141Z,100.00
2023-05-01T18:07:15.643Z,100.00
2023-05-01T18:10:21.897Z,100.00
2023-05-01T18:13:30.034Z,100.00
2023-05-01T18:16:36.631Z,100.00
2023-05-01T18:19:44.288Z,100.00
2023-05-01T18:22:50.756Z,100.00
2023-05-01T18:25:57.122Z,100.00
2023-05-01T18:29:03.849Z,100.00
2023-05-01T18:32:12.762Z,100.00
2023-05-01T18:35:21.894Z,100.00
2023-05-01T18:38:28.921Z,100.00
2023-05-01T18:41:35.651Z,100.00
2023-05-01T18:44:41.638Z,100.00
2023-05-01T18:47:48.033Z,100.00
2023-05-01T18:51:07.906Z,100.00
2023-05-01T18:54:16.364Z,100.00
2023-05-01T18:57:22.711Z,100.00
2023-05-01T19:00:29.337Z,100.00
2023-05-01T19:03:35.699Z,100.00
2023-05-01T19:06:43.594Z,100.00
2023-05-01T19:09:49.953Z,100.00
2023-05-01T19:12:56.431Z,100.00
2023-05-01T19:16:03.237Z,100.00
2023-05-01T19:19:10.949Z,100.00
2023-05-01T19:22:18.683Z,100.00
2023-05-01T19:25:25.317Z,100.00
2023-05-01T19:28:31.821Z,100.00
2023-05-01T19:31:38.696Z,100.00
2023-05-01T19:34:45.458Z,100.00
2023-05-01T19:37:56.721Z,100.00
2023-05-01T19:41:03.432Z,100.00
2023-05-01T19:44:10.305Z,100.00
2023-05-01T19:47:16.512Z,100.00
2023-05-01T19:50:22.828Z,100.00
2023-05-01T19:53:31.351Z,100.00
2023-05-01T19:56:38.702Z,100.00
2023-05-01T19:59:45.104Z,100.00
2023-05-01T20:02:51.504Z,100.00
2023-05-01T20:05:58.580Z,100.00
2023-05-01T20:09:07.331Z,100.00
2023-05-01T20:12:13.509Z,100.00
2023-05-01T20:15:20.080Z,100.00
2023-05-01T20:18:26.719Z,100.00
2023-05-01T20:21:32.952Z,100.00
2023-05-01T20:24:41.217Z,100.00
2023-05-01T20:27:47.396Z,100.00
2023-05-01T20:30:54.092Z,100.00
2023-05-01T20:34:00.899Z,100.00
2023-05-01T20:37:07.049Z,100.00
2023-05-01T20:40:16.566Z,100.00
2023-05-01T20:43:22.464Z,100.00
2023-05-01T20:46:28.729Z,100.00
2023-05-01T20:49:34.876Z,100.00
2023-05-01T20:52:41.309Z,100.00
2023-05-01T20:55:49.941Z,100.00
2023-05-01T20:58:56.314Z,100.00
2023-05-01T21:02:05.470Z,100.00
2023-05-01T21:05:12.121Z,100.00
2023-05-01T21:08:18.459Z,100.00
2023-05-01T21:11:26.285Z,100.00
2023-05-01T21:14:32.401Z,100.00
2023-05-01T21:17:40.847Z,100.00
2023-05-01T21:20:48.368Z,100.00
2023-05-01T21:23:55.042Z,100.00
2023-05-01T21:27:03.896Z,100.00
2023-05-01T21:30:16.081Z,100.00
2023-05-01T21:33:22.241Z,100.00
2023-05-01T21:36:28.353Z,100.00
2023-05-01T21:39:34.808Z,100.00
2023-05-01T21:42:42.209Z,100.00
2023-05-01T21:45:48.281Z,100.00
2023-05-01T21:48:54.544Z,100.00
2023-05-01T21:52:01.205Z,100.00
2023-05-01T21:55:09.309Z,100.00
2023-05-01T21:58:16.790Z,100.00
2023-05-01T22:01:24.703Z,100.00
2023-05-01T22:04:31.565Z,100.00
2023-05-01T22:07:40.118Z,100.00
2023-05-01T22:10:46.274Z,100.00
2023-05-01T22:13:54.345Z,100.00
2023-05-01T22:17:00.777Z,100.00
2023-05-01T22:20:10.005Z,100.00
2023-05-01T22:23:16.144Z,100.00
2023-05-01T22:26:22.201Z,100.00
2023-05-01T22:29:29.902Z,100.00
2023-05-01T22:32:36.678Z,100.00
2023-05-01T22:35:43.001Z,100.00
2023-05-01T22:38:49.201Z,100.00
2023-05-01T22:41:55.763Z,100.00
2023-05-01T22:45:03.178Z,100.00
2023-05-01T22:48:10.605Z,100.00
2023-05-01T22:51:16.732Z,100.00
2023-05-01T22:54:22.608Z,100.00
2023-05-01T22:57:28.843Z,100.00
2023-05-01T23:00:36.742Z,100.00
2023-05-01T23:03:43.043Z,100.00
2023-05-01T23:06:49.178Z,100.00
2023-05-01T23:09:57.373Z,100.00
2023-05-01T23:13:05.043Z,100.00
2023-05-01T23:16:15.586Z,100.00
2023-05-01T23:19:23.289Z,100.00
2023-05-01T23:22:31.310Z,100.00
2023-05-01T23:25:37.504Z,100.00
2023-05-01T23:28:44.112Z,100.00
2023-05-01T23:31:51.942Z,100.00
2023-05-01T23:35:06.218Z,100.00
2023-05-01T23:38:13.925Z,100.00
2023-05-01T23:41:20.553Z,100.00
2023-05-01T23:44:26.921Z,100.00
2023-05-01T23:47:35.028Z,100.00
2023-05-01T23:50:41.557Z,100.00
2023-05-01T23:53:48.008Z,100.00
2023-05-01T23:56:54.598Z,100.00
